createdAt,value
2019-01-18T00:03:24.313Z,3.17
2019-01-18T00:08:43.096Z,3.17
2019-01-18T00:14:00.931Z,3.80
2019-01-18T00:19:18.789Z,3.87
2019-01-18T00:24:36.604Z,3.30
2019-01-18T00:29:54.435Z,3.50
2019-01-18T00:35:12.260Z,3.43
2019-01-18T00:40:30.071Z,4.33
2019-01-18T00:45:47.883Z,3.60
2019-01-18T00:51:05.732Z,3.77
2019-01-18T00:56:23.555Z,3.53
2019-01-18T01:01:41.371Z,2.93
2019-01-18T01:06:59.195Z,3.60
2019-01-18T01:12:17.194Z,3.23
2019-01-18T01:17:35.046Z,3.00
2019-01-18T01:22:52.867Z,3.53
2019-01-18T01:28:10.684Z,4.30
2019-01-18T01:33:28.503Z,3.40
2019-01-18T01:38:46.748Z,3.40
2019-01-18T01:44:04.657Z,3.20
2019-01-18T01:49:22.463Z,3.40
2019-01-18T01:54:41.346Z,3.03
2019-01-18T01:59:59.163Z,3.47
2019-01-18T02:05:16.976Z,3.20
2019-01-18T02:10:34.825Z,3.03
2019-01-18T02:15:52.633Z,3.43
2019-01-18T02:21:10.445Z,3.20
2019-01-18T02:26:28.251Z,3.43
2019-01-18T02:31:46.065Z,3.07
2019-01-18T02:37:05.295Z,2.87
2019-01-18T02:42:23.103Z,3.17
2019-01-18T02:47:40.963Z,3.63
2019-01-18T02:52:58.800Z,3.30
2019-01-18T02:58:16.655Z,3.20
2019-01-18T03:03:34.455Z,3.23
2019-01-18T03:08:52.552Z,3.40
2019-01-18T03:14:10.363Z,3.20
2019-01-18T03:19:28.182Z,3.50
2019-01-18T03:24:45.996Z,3.20
2019-01-18T03:30:18.172Z,3.87
2019-01-18T03:35:26.414Z,3.70
2019-01-18T03:40:45.207Z,3.30
2019-01-18T03:46:03.022Z,4.17
2019-01-18T03:51:20.831Z,4.13
2019-01-18T03:56:38.657Z,4.47
2019-01-18T04:01:56.549Z,3.43
2019-01-18T04:07:14.362Z,5.10
2019-01-18T04:12:32.183Z,5.33
2019-01-18T04:17:50.011Z,4.30
2019-01-18T04:23:07.837Z,4.47
2019-01-18T04:28:26.968Z,4.00
2019-01-18T04:33:44.918Z,4.40
2019-01-18T04:39:03.960Z,4.57
2019-01-18T04:44:22.250Z,4.37
2019-01-18T04:49:40.083Z,4.10
2019-01-18T04:54:57.919Z,5.33
2019-01-18T05:00:20.727Z,5.80
2019-01-18T05:05:38.562Z,4.83
2019-01-18T05:10:56.377Z,4.73
2019-01-18T05:16:14.773Z,4.50
2019-01-18T05:21:32.600Z,5.70
2019-01-18T05:26:52.021Z,3.93
2019-01-18T05:32:09.864Z,3.63
2019-01-18T05:37:27.684Z,3.20
2019-01-18T05:42:45.507Z,3.20
2019-01-18T05:48:03.408Z,3.27
2019-01-18T05:53:21.445Z,3.73
2019-01-18T05:58:39.232Z,4.10
2019-01-18T06:04:00.138Z,4.87
2019-01-18T06:09:18.035Z,5.63
2019-01-18T06:14:35.883Z,5.97
2019-01-18T06:19:53.735Z,6.60
2019-01-18T06:25:11.579Z,8.23
2019-01-18T06:30:30.467Z,7.07
2019-01-18T06:35:48.331Z,7.53
2019-01-18T06:41:07.866Z,8.60
2019-01-18T06:46:25.694Z,6.83
2019-01-18T06:51:43.519Z,7.07
2019-01-18T06:57:01.405Z,7.80
2019-01-18T07:02:19.256Z,7.13
2019-01-18T07:07:38.887Z,9.17
2019-01-18T07:12:56.728Z,6.10
2019-01-18T07:18:14.568Z,7.57
2019-01-18T07:23:32.600Z,7.90
2019-01-18T07:29:31.099Z,7.43
2019-01-18T07:34:48.928Z,6.20
2019-01-18T07:40:08.996Z,4.80
2019-01-18T07:45:28.967Z,4.60
2019-01-18T07:50:46.786Z,4.37
2019-01-18T07:56:04.612Z,4.00
2019-01-18T08:01:22.465Z,4.53
2019-01-18T08:06:40.658Z,3.37
2019-01-18T08:11:58.482Z,3.77
2019-01-18T08:17:16.376Z,3.47
2019-01-18T08:22:34.261Z,3.80
2019-01-18T08:27:52.082Z,4.00
2019-01-18T08:33:10.034Z,3.10
2019-01-18T08:38:28.792Z,3.00
2019-01-18T08:43:46.696Z,2.77
2019-01-18T08:49:05.259Z,3.07
2019-01-18T08:54:23.633Z,2.87
2019-01-18T08:59:41.629Z,2.63
2019-01-18T09:05:00.231Z,3.17
2019-01-18T09:10:20.368Z,2.70
2019-01-18T09:15:38.670Z,3.17
2019-01-18T09:20:56.537Z,2.70
2019-01-18T09:26:15.007Z,3.77
2019-01-18T09:31:35.571Z,4.17
2019-01-18T09:36:53.451Z,3.50
2019-01-18T09:42:11.265Z,3.13
2019-01-18T09:47:29.074Z,3.50
2019-01-18T09:52:47.031Z,3.93
2019-01-18T09:58:04.919Z,4.57
2019-01-18T10:03:22.736Z,3.60
2019-01-18T10:08:40.556Z,4.37
2019-01-18T10:13:58.375Z,3.87
2019-01-18T10:19:16.263Z,3.70
2019-01-18T10:24:34.080Z,4.77
2019-01-18T10:29:51.966Z,4.37
2019-01-18T10:35:09.787Z,3.57
2019-01-18T10:40:27.639Z,4.43
2019-01-18T10:45:45.460Z,3.70
2019-01-18T10:51:03.276Z,3.90
2019-01-18T10:56:21.090Z,3.90
2019-01-18T11:01:38.963Z,3.97
2019-01-18T11:06:56.784Z,3.23
2019-01-18T11:12:14.600Z,3.93
2019-01-18T11:17:32.413Z,2.97
2019-01-18T11:22:51.052Z,3.80
2019-01-18T11:28:08.916Z,2.53
2019-01-18T11:33:26.727Z,2.63
2019-01-18T11:38:44.770Z,2.90
2019-01-18T11:44:02.907Z,2.50
2019-01-18T11:49:20.822Z,2.17
2019-01-18T11:54:38.659Z,3.30
2019-01-18T11:59:56.489Z,2.10
2019-01-18T12:05:14.339Z,2.50
2019-01-18T12:10:32.778Z,3.22
2019-01-18T12:15:50.600Z,2.87
2019-01-18T12:21:08.415Z,3.30
2019-01-18T12:26:26.229Z,3.70
2019-01-18T12:31:44.092Z,3.10
2019-01-18T12:37:01.874Z,2.93
2019-01-18T12:42:20.063Z,4.00
2019-01-18T12:47:37.899Z,3.87
2019-01-18T12:52:55.860Z,3.77
2019-01-18T12:58:13.694Z,4.10
2019-01-18T13:03:31.506Z,4.20
2019-01-18T13:08:49.328Z,3.60
2019-01-18T13:14:08.913Z,3.50
2019-01-18T13:19:26.947Z,3.30
2019-01-18T13:24:44.819Z,3.50
2019-01-18T13:30:02.799Z,3.27
2019-01-18T13:35:20.620Z,3.97
2019-01-18T13:40:38.435Z,3.47
2019-01-18T13:45:56.256Z,3.93
2019-01-18T13:51:14.098Z,3.63
2019-01-18T13:56:31.920Z,3.70
2019-01-18T14:01:49.942Z,3.10
2019-01-18T14:07:07.764Z,3.40
2019-01-18T14:12:25.590Z,3.70
2019-01-18T14:17:43.417Z,3.43
2019-01-18T14:23:01.257Z,2.93
2019-01-18T14:28:20.024Z,3.37
2019-01-18T14:33:38.484Z,4.28
2019-01-18T14:38:56.358Z,4.43
2019-01-18T14:44:14.167Z,4.00
2019-01-18T14:49:32.650Z,3.17
2019-01-18T14:54:50.559Z,4.03
2019-01-18T15:00:20.907Z,5.20
2019-01-18T15:05:38.735Z,4.90
2019-01-18T15:10:56.565Z,4.70
2019-01-18T15:16:14.387Z,5.27
2019-01-18T15:21:32.215Z,4.83
2019-01-18T15:26:50.072Z,3.93
2019-01-18T15:32:07.924Z,4.37
2019-01-18T15:37:26.090Z,4.40
2019-01-18T15:42:43.938Z,4.57
2019-01-18T15:48:01.772Z,4.60
2019-01-18T15:53:19.611Z,4.80
2019-01-18T15:58:37.472Z,5.37
2019-01-18T16:03:55.322Z,5.30
2019-01-18T16:09:13.210Z,5.20
2019-01-18T16:14:31.136Z,5.37
2019-01-18T16:19:48.963Z,6.30
2019-01-18T16:25:10.068Z,6.07
2019-01-18T16:30:28.597Z,6.40
2019-01-18T16:35:46.414Z,6.60
2019-01-18T16:41:04.404Z,6.20
2019-01-18T16:46:22.344Z,6.43
2019-01-18T16:51:40.180Z,7.13
2019-01-18T16:56:58.009Z,7.30
2019-01-18T17:02:15.836Z,6.77
2019-01-18T17:07:33.660Z,6.50
2019-01-18T17:12:51.491Z,6.33
2019-01-18T17:18:09.324Z,6.30
2019-01-18T17:23:27.152Z,7.03
2019-01-18T17:28:44.992Z,6.97
2019-01-18T17:34:02.824Z,8.70
2019-01-18T17:39:35.495Z,8.10
2019-01-18T17:45:08.303Z,7.60
2019-01-18T17:50:32.242Z,7.97
2019-01-18T17:55:59.210Z,9.10
2019-01-18T18:01:52.309Z,8.03
2019-01-18T18:07:16.260Z,8.93
2019-01-18T18:12:53.875Z,8.03
2019-01-18T18:18:17.741Z,9.13
2019-01-18T18:23:38.887Z,10.23
2019-01-18T18:29:15.186Z,10.97
2019-01-18T18:35:10.091Z,11.00
2019-01-18T18:40:34.038Z,10.40
2019-01-18T18:46:10.410Z,11.13
2019-01-18T18:52:01.824Z,13.27
2019-01-18T18:57:29.988Z,10.63
2019-01-18T19:03:03.140Z,10.60
2019-01-18T19:08:35.557Z,10.63
2019-01-18T19:14:21.113Z,13.55
2019-01-18T19:19:57.546Z,11.83
2019-01-18T19:25:24.635Z,11.13
2019-01-18T19:31:09.461Z,10.53
2019-01-18T19:36:33.256Z,12.57
2019-01-18T19:42:09.319Z,15.57
2019-01-18T19:47:48.461Z,14.07
2019-01-18T19:53:21.521Z,10.47
2019-01-18T19:58:42.642Z,11.20
2019-01-18T20:04:03.760Z,10.87
2019-01-18T20:09:41.819Z,11.13
2019-01-18T20:15:08.658Z,10.83
2019-01-18T20:20:41.725Z,11.17
2019-01-18T20:26:14.828Z,11.43
2019-01-18T20:31:38.995Z,10.90
2019-01-18T20:37:09.342Z,11.50
2019-01-18T20:42:53.486Z,10.80
2019-01-18T20:48:23.824Z,12.63
2019-01-18T20:54:05.633Z,11.50
2019-01-18T20:59:32.687Z,11.27
2019-01-18T21:05:12.252Z,10.90
2019-01-18T21:10:48.478Z,10.67
2019-01-18T21:16:40.891Z,10.43
2019-01-18T21:22:29.584Z,11.13
2019-01-18T21:28:10.403Z,10.77
2019-01-18T21:33:52.342Z,13.17
2019-01-18T21:39:30.849Z,12.40
2019-01-18T21:45:14.223Z,14.23
2019-01-18T21:50:56.698Z,12.63
2019-01-18T21:56:37.346Z,15.20
2019-01-18T22:02:20.549Z,13.13
2019-01-18T22:08:01.501Z,13.47
2019-01-18T22:13:24.791Z,12.03
2019-01-18T22:18:49.307Z,11.43
2019-01-18T22:24:17.723Z,11.83
2019-01-18T22:30:01.776Z,12.13
2019-01-18T22:35:33.947Z,10.43
2019-01-18T22:41:03.252Z,9.67
2019-01-18T22:46:38.686Z,9.40
2019-01-18T22:52:26.747Z,9.47
2019-01-18T22:57:53.616Z,11.20
2019-01-18T23:03:21.293Z,10.83
2019-01-18T23:09:07.980Z,11.03
2019-01-18T23:14:56.949Z,11.37
2019-01-18T23:20:46.881Z,9.80
2019-01-18T23:26:20.316Z,9.00
2019-01-18T23:31:41.403Z,9.33
2019-01-18T23:37:05.344Z,10.27
2019-01-18T23:42:35.392Z,9.30
2019-01-18T23:48:05.408Z,8.70
2019-01-18T23:53:44.495Z,8.57
2019-01-18T23:59:07.293Z,9.30
